createdAt,value
2019-02-22T00:02:01.796Z,85.37
2019-02-22T00:04:54.787Z,85.34
2019-02-22T00:07:44.108Z,85.44
2019-02-22T00:10:33.943Z,85.67
2019-02-22T00:13:23.485Z,85.55
2019-02-22T00:16:16.234Z,85.14
2019-02-22T00:19:05.533Z,85.67
2019-02-22T00:21:57.314Z,85.39
2019-02-22T00:24:46.755Z,87.88
2019-02-22T00:27:36.332Z,86.09
2019-02-22T00:30:25.783Z,87.32
2019-02-22T00:33:15.278Z,86.86
2019-02-22T00:36:04.689Z,87.49
2019-02-22T00:38:53.977Z,88.17
2019-02-22T00:41:44.023Z,90.04
2019-02-22T00:44:33.671Z,89.98
2019-02-22T00:47:26.575Z,90.50
2019-02-22T00:50:16.120Z,90.10
2019-02-22T00:53:05.817Z,89.64
2019-02-22T00:55:55.686Z,89.39
2019-02-22T00:58:45.247Z,88.86
2019-02-22T01:01:34.365Z,87.86
2019-02-22T01:04:24.545Z,89.60
2019-02-22T01:07:14.751Z,90.68
2019-02-22T01:10:04.757Z,92.15
2019-02-22T01:12:54.373Z,93.51
2019-02-22T01:15:43.152Z,92.81
2019-02-22T01:18:32.432Z,92.27
2019-02-22T01:21:22.528Z,92.56
2019-02-22T01:24:12.186Z,93.39
2019-02-22T01:27:01.811Z,93.13
2019-02-22T01:29:51.404Z,92.97
2019-02-22T01:32:40.687Z,93.00
2019-02-22T01:35:30.365Z,92.96
2019-02-22T01:38:20.336Z,91.35
2019-02-22T01:41:09.857Z,90.70
2019-02-22T01:43:59.632Z,90.60
2019-02-22T01:46:49.647Z,91.10
2019-02-22T01:49:38.914Z,90.90
2019-02-22T01:52:28.558Z,89.52
2019-02-22T01:55:17.519Z,89.30
2019-02-22T01:58:06.586Z,91.11
2019-02-22T02:00:55.991Z,91.96
2019-02-22T02:03:45.905Z,91.25
2019-02-22T02:06:35.432Z,91.28
2019-02-22T02:09:24.910Z,91.72
2019-02-22T02:12:14.539Z,92.70
2019-02-22T02:15:04.587Z,94.14
2019-02-22T02:17:53.900Z,96.09
2019-02-22T02:20:43.701Z,97.51
2019-02-22T02:23:33.060Z,97.70
2019-02-22T02:26:22.317Z,97.98
2019-02-22T02:29:12.189Z,95.63
2019-02-22T02:32:01.740Z,94.73
2019-02-22T02:34:51.053Z,93.68
2019-02-22T02:37:40.036Z,92.98
2019-02-22T02:40:30.055Z,92.71
2019-02-22T02:43:19.079Z,92.57
2019-02-22T02:46:08.051Z,92.23
2019-02-22T02:48:57.194Z,93.43
2019-02-22T02:51:46.753Z,92.36
2019-02-22T02:54:36.761Z,91.92
2019-02-22T02:57:26.054Z,92.92
2019-02-22T03:00:15.774Z,92.41
2019-02-22T03:03:08.717Z,94.37
2019-02-22T03:06:29.464Z,95.45
2019-02-22T03:09:19.203Z,94.32
2019-02-22T03:12:08.868Z,93.77
2019-02-22T03:14:57.302Z,93.57
2019-02-22T03:17:46.584Z,93.11
2019-02-22T03:20:35.801Z,92.06
2019-02-22T03:23:24.851Z,92.31
2019-02-22T03:26:14.299Z,92.63
2019-02-22T03:29:03.743Z,93.87
2019-02-22T03:31:52.986Z,93.87
2019-02-22T03:34:42.262Z,94.55
2019-02-22T03:37:31.530Z,93.72
2019-02-22T03:40:20.593Z,94.87
2019-02-22T03:43:10.999Z,94.52
2019-02-22T03:46:00.482Z,95.94
2019-02-22T03:48:49.705Z,94.50
2019-02-22T03:51:39.107Z,95.96
2019-02-22T03:54:27.990Z,95.40
2019-02-22T03:57:18.910Z,95.40
2019-02-22T04:00:09.130Z,96.75
2019-02-22T04:02:58.306Z,96.26
2019-02-22T04:05:47.696Z,96.53
2019-02-22T04:08:36.684Z,94.87
2019-02-22T04:11:25.926Z,95.31
2019-02-22T04:14:14.919Z,93.89
2019-02-22T04:17:04.151Z,93.99
2019-02-22T04:19:53.831Z,93.08
2019-02-22T04:22:44.376Z,93.08
2019-02-22T04:25:33.452Z,92.83
2019-02-22T04:28:22.749Z,92.65
2019-02-22T04:31:12.328Z,92.73
2019-02-22T04:34:01.932Z,94.23
2019-02-22T04:36:51.031Z,91.19
2019-02-22T04:39:40.606Z,90.15
2019-02-22T04:42:29.483Z,91.06
2019-02-22T04:45:19.881Z,93.46
2019-02-22T04:48:09.239Z,94.53
2019-02-22T04:50:58.573Z,93.78
2019-02-22T04:53:47.873Z,96.35
2019-02-22T04:56:37.198Z,97.92
2019-02-22T04:59:27.549Z,96.43
2019-02-22T05:02:16.988Z,96.78
2019-02-22T05:05:06.927Z,94.90
2019-02-22T05:07:56.188Z,95.18
2019-02-22T05:10:45.784Z,95.24
2019-02-22T05:13:35.115Z,94.83
2019-02-22T05:16:24.544Z,93.34
2019-02-22T05:19:14.185Z,93.51
2019-02-22T05:22:03.570Z,93.98
2019-02-22T05:24:52.605Z,95.00
2019-02-22T05:27:42.249Z,93.80
2019-02-22T05:30:31.606Z,94.01
2019-02-22T05:33:20.811Z,93.70
2019-02-22T05:36:09.914Z,94.86
2019-02-22T05:38:59.480Z,94.01
2019-02-22T05:41:48.952Z,93.47
2019-02-22T05:44:41.778Z,94.48
2019-02-22T05:47:35.025Z,95.01
2019-02-22T05:50:24.613Z,94.39
2019-02-22T05:53:13.172Z,91.95
2019-02-22T05:56:02.919Z,91.40
2019-02-22T05:58:52.090Z,89.99
2019-02-22T06:01:41.628Z,89.39
2019-02-22T06:04:31.122Z,89.12
2019-02-22T06:07:20.529Z,91.17
2019-02-22T06:10:09.742Z,88.07
2019-02-22T06:12:59.008Z,88.71
2019-02-22T06:15:48.310Z,85.60
2019-02-22T06:18:37.803Z,87.14
2019-02-22T06:21:27.518Z,88.28
2019-02-22T06:24:16.935Z,87.20
2019-02-22T06:27:06.191Z,85.12
2019-02-22T06:29:55.559Z,82.71
2019-02-22T06:32:44.107Z,83.57
2019-02-22T06:35:33.359Z,83.49
2019-02-22T06:38:22.731Z,81.28
2019-02-22T06:41:12.171Z,79.10
2019-02-22T06:44:01.369Z,79.71
2019-02-22T06:46:50.434Z,81.11
2019-02-22T06:49:40.004Z,81.16
2019-02-22T06:52:31.746Z,80.35
2019-02-22T06:55:21.105Z,80.86
2019-02-22T06:58:11.812Z,79.23
2019-02-22T07:01:01.436Z,78.55
2019-02-22T07:03:50.716Z,79.74
2019-02-22T07:06:40.042Z,78.73
2019-02-22T07:09:29.107Z,77.70
2019-02-22T07:12:37.155Z,76.12
2019-02-22T07:15:26.732Z,76.55
2019-02-22T07:18:16.171Z,75.58
2019-02-22T07:21:05.848Z,74.89
2019-02-22T07:23:55.398Z,73.30
2019-02-22T07:26:44.504Z,73.60
2019-02-22T07:29:33.572Z,74.62
2019-02-22T07:32:23.215Z,74.06
2019-02-22T07:35:14.269Z,75.18
2019-02-22T07:38:03.026Z,74.46
2019-02-22T07:40:52.644Z,73.86
2019-02-22T07:43:42.223Z,74.04
2019-02-22T07:46:31.491Z,74.08
2019-02-22T07:49:25.923Z,72.73
2019-02-22T07:52:15.182Z,73.37
2019-02-22T07:55:04.860Z,72.01
2019-02-22T07:57:53.946Z,72.37
2019-02-22T08:00:42.974Z,71.27
2019-02-22T08:03:32.337Z,70.17
2019-02-22T08:06:22.099Z,68.58
2019-02-22T08:08:52.958Z,68.00
2019-02-22T08:11:23.797Z,67.61
2019-02-22T08:13:54.685Z,66.28
2019-02-22T08:16:25.543Z,66.11
2019-02-22T08:19:01.428Z,66.63
2019-02-22T08:21:29.272Z,64.48
2019-02-22T08:24:00.123Z,64.96
2019-02-22T08:26:31.010Z,65.10
2019-02-22T08:29:01.862Z,65.14
2019-02-22T08:31:32.716Z,64.00
2019-02-22T08:34:03.606Z,64.66
2019-02-22T08:36:34.449Z,65.10
2019-02-22T08:39:06.332Z,63.72
2019-02-22T08:41:37.299Z,62.84
2019-02-22T08:44:08.169Z,62.91
2019-02-22T08:46:39.030Z,61.86
2019-02-22T08:49:09.916Z,61.04
2019-02-22T08:51:40.772Z,59.73
2019-02-22T08:54:11.631Z,60.83
2019-02-22T08:56:42.586Z,61.56
2019-02-22T08:59:13.465Z,62.10
2019-02-22T09:01:44.292Z,62.50
2019-02-22T09:04:15.180Z,61.26
2019-02-22T09:06:46.039Z,61.61
2019-02-22T09:09:16.895Z,62.35
2019-02-22T09:11:47.846Z,63.90
2019-02-22T09:14:19.193Z,63.69
2019-02-22T09:16:50.114Z,63.70
2019-02-22T09:19:21.026Z,62.07
2019-02-22T09:21:51.934Z,62.26
2019-02-22T09:24:22.789Z,61.39
2019-02-22T09:26:53.737Z,62.44
2019-02-22T09:29:24.597Z,62.45
2019-02-22T09:31:55.516Z,63.13
2019-02-22T09:34:26.408Z,64.03
2019-02-22T09:36:57.269Z,64.26
2019-02-22T09:39:28.223Z,64.12
2019-02-22T09:41:59.175Z,64.75
2019-02-22T09:44:30.027Z,64.55
2019-02-22T09:47:00.888Z,64.43
2019-02-22T09:49:31.833Z,65.18
2019-02-22T09:52:03.637Z,67.15
2019-02-22T09:54:34.491Z,67.79
2019-02-22T09:57:05.923Z,69.50
2019-02-22T09:59:36.771Z,69.22
2019-02-22T10:02:07.621Z,70.01
2019-02-22T10:04:38.710Z,71.52
2019-02-22T10:07:09.557Z,72.11
2019-02-22T10:09:40.404Z,73.81
2019-02-22T10:12:11.332Z,74.60
2019-02-22T10:14:42.183Z,75.44
2019-02-22T10:17:13.045Z,75.45
2019-02-22T10:19:43.975Z,75.43
2019-02-22T10:22:14.828Z,76.04
2019-02-22T10:24:45.685Z,76.86
2019-02-22T10:27:16.642Z,76.95
2019-02-22T10:29:47.524Z,76.75
2019-02-22T10:32:18.395Z,76.93
2019-02-22T10:34:49.275Z,76.08
2019-02-22T10:37:20.197Z,75.91
2019-02-22T10:39:51.057Z,75.63
2019-02-22T10:42:22.499Z,75.21
2019-02-22T10:44:53.347Z,74.17
2019-02-22T10:47:24.218Z,74.10
2019-02-22T10:49:55.106Z,72.25
2019-02-22T10:52:26.517Z,72.39
2019-02-22T10:54:57.464Z,71.48
2019-02-22T10:57:28.399Z,71.19
2019-02-22T10:59:59.244Z,70.74
2019-02-22T11:02:31.335Z,71.15
2019-02-22T11:05:02.486Z,70.75
2019-02-22T11:07:33.347Z,71.09
2019-02-22T11:10:04.302Z,71.31
2019-02-22T11:12:35.283Z,71.28
2019-02-22T11:15:07.192Z,70.95
2019-02-22T11:17:38.135Z,70.87
2019-02-22T11:20:09.345Z,70.80
2019-02-22T11:22:40.208Z,71.32
2019-02-22T11:25:11.959Z,71.66
2019-02-22T11:27:42.810Z,71.75
2019-02-22T11:30:13.796Z,71.81
2019-02-22T11:32:45.301Z,71.78
2019-02-22T11:35:16.193Z,71.92
2019-02-22T11:37:47.156Z,71.81
2019-02-22T11:40:18.023Z,72.43
2019-02-22T11:42:48.868Z,73.75
2019-02-22T11:45:19.725Z,74.25
2019-02-22T11:47:50.688Z,74.48
2019-02-22T11:50:21.533Z,74.82
2019-02-22T11:52:53.388Z,74.83
2019-02-22T11:55:24.281Z,75.21
2019-02-22T11:57:55.317Z,74.95
2019-02-22T12:00:27.245Z,74.65
2019-02-22T12:02:58.192Z,74.47
2019-02-22T12:05:29.043Z,74.41
2019-02-22T12:07:59.904Z,74.16
2019-02-22T12:10:30.794Z,75.13
2019-02-22T12:13:01.653Z,74.27
2019-02-22T12:15:32.501Z,75.89
2019-02-22T12:18:03.458Z,74.24
2019-02-22T12:20:34.341Z,75.32
2019-02-22T12:23:05.184Z,75.93
2019-02-22T12:25:36.083Z,75.68
2019-02-22T12:28:06.942Z,75.77
2019-02-22T12:30:37.798Z,75.36
2019-02-22T12:33:08.763Z,75.67
2019-02-22T12:35:39.610Z,76.30
2019-02-22T12:38:10.470Z,76.72
2019-02-22T12:40:41.435Z,76.59
2019-02-22T12:43:12.294Z,75.69
2019-02-22T12:45:43.135Z,75.76
2019-02-22T12:48:13.062Z,75.50
2019-02-22T12:50:42.797Z,77.70
2019-02-22T12:53:13.599Z,77.46
2019-02-22T12:55:43.379Z,77.92
2019-02-22T12:58:13.116Z,78.59
2019-02-22T13:00:42.853Z,79.07
2019-02-22T13:03:12.651Z,79.17
2019-02-22T13:05:42.383Z,78.51
2019-02-22T13:08:12.114Z,78.82
2019-02-22T13:10:42.086Z,78.97
2019-02-22T13:13:11.834Z,79.34
2019-02-22T13:15:41.634Z,78.65
2019-02-22T13:18:11.407Z,78.14
2019-02-22T13:20:41.146Z,76.95
2019-02-22T13:23:10.871Z,77.26
2019-02-22T13:25:40.652Z,77.44
2019-02-22T13:28:10.385Z,76.79
2019-02-22T13:30:40.122Z,77.83
2019-02-22T13:33:09.971Z,77.89
2019-02-22T13:35:39.716Z,78.93
2019-02-22T13:38:09.529Z,78.21
2019-02-22T13:40:39.338Z,78.55
2019-02-22T13:43:09.178Z,78.14
2019-02-22T13:45:38.914Z,78.02
2019-02-22T13:48:08.706Z,76.91
2019-02-22T13:50:38.446Z,76.65
2019-02-22T13:53:08.292Z,76.29
2019-02-22T13:55:38.141Z,75.27
2019-02-22T13:58:07.882Z,74.74
2019-02-22T14:00:37.610Z,74.58
2019-02-22T14:03:07.416Z,74.84
2019-02-22T14:05:37.160Z,74.98
2019-02-22T14:08:06.912Z,75.82
2019-02-22T14:10:36.698Z,75.87
2019-02-22T14:13:06.439Z,76.08
2019-02-22T14:15:38.270Z,76.13
2019-02-22T14:18:07.607Z,77.01
2019-02-22T14:20:37.347Z,78.22
2019-02-22T14:23:07.095Z,77.65
2019-02-22T14:25:36.904Z,76.39
2019-02-22T14:28:06.662Z,76.20
2019-02-22T14:30:36.435Z,76.86
2019-02-22T14:33:06.217Z,77.06
2019-02-22T14:35:35.950Z,77.84
2019-02-22T14:38:05.700Z,79.98
2019-02-22T14:40:35.550Z,80.63
2019-02-22T14:43:15.770Z,80.12
2019-02-22T14:45:36.864Z,79.83
2019-02-22T14:48:06.643Z,80.71
2019-02-22T14:50:36.392Z,80.58
2019-02-22T14:53:06.212Z,82.66
2019-02-22T14:55:37.224Z,82.91
2019-02-22T14:58:06.992Z,81.81
2019-02-22T15:00:37.211Z,80.73
2019-02-22T15:03:07.091Z,78.84
2019-02-22T15:05:36.832Z,79.12
2019-02-22T15:08:06.612Z,79.97
2019-02-22T15:10:36.400Z,80.51
2019-02-22T15:13:07.117Z,80.16
2019-02-22T15:16:00.922Z,82.14
2019-02-22T15:18:27.280Z,82.70
2019-02-22T15:20:57.040Z,84.76
2019-02-22T15:23:26.819Z,84.81
2019-02-22T15:25:56.624Z,85.78
2019-02-22T15:28:26.565Z,86.40
2019-02-22T15:30:56.645Z,86.44
2019-02-22T15:33:29.056Z,86.64
2019-02-22T15:35:59.345Z,87.37
2019-02-22T15:38:29.095Z,87.90
2019-02-22T15:40:58.884Z,87.27
2019-02-22T15:43:28.722Z,87.23
2019-02-22T15:45:58.592Z,87.87
2019-02-22T15:48:28.346Z,87.75
2019-02-22T15:50:58.140Z,88.63
2019-02-22T15:53:27.879Z,88.90
2019-02-22T15:55:57.707Z,88.58
2019-02-22T15:58:27.630Z,89.02
2019-02-22T16:00:57.395Z,90.37
2019-02-22T16:03:28.773Z,90.34
2019-02-22T16:05:58.720Z,89.32
2019-02-22T16:08:28.727Z,89.36
2019-02-22T16:10:58.706Z,89.13
2019-02-22T16:13:28.823Z,89.05
2019-02-22T16:15:58.569Z,89.51
2019-02-22T16:18:28.456Z,89.56
2019-02-22T16:20:58.411Z,89.15
2019-02-22T16:23:28.166Z,86.10
2019-02-22T16:25:57.913Z,86.00
2019-02-22T16:28:27.685Z,86.68
2019-02-22T16:31:00.520Z,88.88
2019-02-22T16:33:30.414Z,90.60
2019-02-22T16:36:00.342Z,90.49
2019-02-22T16:38:31.822Z,90.90
2019-02-22T16:41:01.786Z,91.63
2019-02-22T16:43:31.862Z,92.67
2019-02-22T16:46:01.757Z,92.92
2019-02-22T16:48:31.612Z,92.08
2019-02-22T16:51:01.633Z,92.19
2019-02-22T16:53:31.710Z,90.80
2019-02-22T16:56:01.799Z,90.29
2019-02-22T16:58:31.751Z,88.83
2019-02-22T17:01:01.712Z,87.05
2019-02-22T17:03:31.605Z,85.72
2019-02-22T17:06:01.531Z,84.11
2019-02-22T17:08:31.766Z,83.55
2019-02-22T17:11:01.652Z,83.40
2019-02-22T17:13:31.590Z,82.87
2019-02-22T17:16:01.558Z,83.27
2019-02-22T17:18:31.439Z,83.56
2019-02-22T17:21:01.320Z,83.69
2019-02-22T17:23:31.221Z,83.67
2019-02-22T17:26:01.121Z,83.26
2019-02-22T17:28:31.179Z,82.80
2019-02-22T17:31:00.991Z,83.15
2019-02-22T17:33:30.802Z,83.77
2019-02-22T17:36:00.723Z,84.34
2019-02-22T17:38:30.491Z,84.54
2019-02-22T17:41:00.267Z,84.06
2019-02-22T17:43:30.115Z,84.82
2019-02-22T17:45:59.963Z,85.61
2019-02-22T17:48:31.360Z,85.34
2019-02-22T17:51:01.371Z,85.20
2019-02-22T17:53:31.136Z,85.49
2019-02-22T17:56:01.109Z,85.58
2019-02-22T17:58:33.615Z,85.63
2019-02-22T18:01:02.949Z,85.82
2019-02-22T18:03:32.906Z,86.67
2019-02-22T18:06:02.946Z,86.78
2019-02-22T18:08:32.904Z,86.72
2019-02-22T18:11:02.849Z,86.47
2019-02-22T18:13:32.833Z,86.48
2019-02-22T18:16:02.649Z,86.91
2019-02-22T18:18:32.599Z,87.02
2019-02-22T18:21:02.585Z,86.92
2019-02-22T18:23:32.436Z,87.33
2019-02-22T18:26:02.343Z,88.11
2019-02-22T18:28:32.264Z,87.85
2019-02-22T18:31:02.110Z,88.51
2019-02-22T18:33:32.178Z,88.54
2019-02-22T18:36:02.615Z,88.86
2019-02-22T18:38:32.696Z,89.08
2019-02-22T18:41:02.669Z,89.20
2019-02-22T18:43:33.416Z,89.33
2019-02-22T18:46:05.487Z,89.71
2019-02-22T18:48:35.565Z,89.93
2019-02-22T18:51:05.967Z,89.94
2019-02-22T18:53:35.870Z,89.93
2019-02-22T18:56:05.815Z,89.84
2019-02-22T18:58:37.172Z,90.02
2019-02-22T19:01:07.457Z,89.97
2019-02-22T19:03:37.931Z,90.60
2019-02-22T19:06:08.050Z,90.82
2019-02-22T19:08:38.039Z,90.79
2019-02-22T19:11:09.961Z,90.71
2019-02-22T19:13:40.159Z,90.50
2019-02-22T19:16:10.328Z,90.13
2019-02-22T19:18:40.677Z,90.91
2019-02-22T19:21:10.762Z,90.86
2019-02-22T19:23:42.264Z,90.89
2019-02-22T19:26:12.493Z,91.14
2019-02-22T19:28:42.870Z,90.98
2019-02-22T19:31:13.948Z,91.58
2019-02-22T19:33:43.992Z,91.46
2019-02-22T19:36:14.070Z,91.93
2019-02-22T19:38:44.126Z,91.97
2019-02-22T19:41:14.476Z,91.84
2019-02-22T19:43:44.411Z,91.72
2019-02-22T19:46:17.346Z,91.51
2019-02-22T19:48:48.045Z,92.76
2019-02-22T19:51:18.420Z,92.30
2019-02-22T19:53:48.805Z,92.60
2019-02-22T19:56:19.329Z,93.46
2019-02-22T19:58:50.707Z,93.69
2019-02-22T20:01:21.246Z,93.93
2019-02-22T20:03:51.163Z,94.57
2019-02-22T20:06:21.238Z,93.86
2019-02-22T20:08:51.342Z,94.20
2019-02-22T20:11:21.388Z,94.09
2019-02-22T20:13:51.355Z,94.72
2019-02-22T20:16:21.220Z,95.03
2019-02-22T20:18:50.963Z,95.22
2019-02-22T20:21:20.739Z,94.76
2019-02-22T20:23:50.540Z,95.51
2019-02-22T20:26:20.300Z,95.88
2019-02-22T20:28:50.115Z,96.22
2019-02-22T20:31:20.727Z,96.91
2019-02-22T20:33:50.798Z,97.10
2019-02-22T20:36:27.966Z,97.11
2019-02-22T20:38:51.945Z,97.69
2019-02-22T20:41:21.789Z,97.97
2019-02-22T20:43:51.642Z,97.90
2019-02-22T20:46:21.929Z,97.70
2019-02-22T20:49:00.495Z,97.08
2019-02-22T20:51:23.605Z,96.00
2019-02-22T20:53:55.395Z,96.34
2019-02-22T20:56:25.268Z,97.62
2019-02-22T20:59:13.519Z,98.55
2019-02-22T21:02:02.069Z,99.18
2019-02-22T21:04:50.628Z,100.00
2019-02-22T21:07:38.586Z,100.00
2019-02-22T21:10:27.196Z,99.75
2019-02-22T21:13:15.323Z,100.00
2019-02-22T21:16:03.810Z,99.54
2019-02-22T21:18:51.973Z,99.64
2019-02-22T21:21:40.614Z,100.00
2019-02-22T21:24:29.180Z,100.00
2019-02-22T21:27:17.628Z,100.00
2019-02-22T21:30:06.260Z,100.00
2019-02-22T21:32:54.738Z,100.00
2019-02-22T21:35:43.350Z,99.29
2019-02-22T21:38:31.167Z,98.84
2019-02-22T21:41:19.102Z,99.34
2019-02-22T21:44:07.104Z,99.69
2019-02-22T21:46:55.677Z,100.00
2019-02-22T21:49:43.431Z,100.00
2019-02-22T21:52:31.124Z,100.00
2019-02-22T21:55:19.561Z,100.00
2019-02-22T21:58:07.994Z,100.00
2019-02-22T22:01:11.830Z,100.00
2019-02-22T22:04:00.167Z,100.00
2019-02-22T22:06:47.668Z,100.00
2019-02-22T22:09:35.691Z,100.00
2019-02-22T22:12:24.230Z,100.00
2019-02-22T22:15:12.657Z,100.00
2019-02-22T22:18:01.147Z,100.00
2019-02-22T22:20:49.571Z,100.00
2019-02-22T22:23:37.941Z,100.00
2019-02-22T22:26:26.270Z,100.00
2019-02-22T22:29:14.387Z,100.00
2019-02-22T22:32:02.426Z,100.00
2019-02-22T22:34:50.993Z,100.00
2019-02-22T22:37:39.363Z,100.00
2019-02-22T22:40:27.799Z,100.00
2019-02-22T22:43:16.192Z,100.00
2019-02-22T22:46:04.613Z,100.00
2019-02-22T22:48:52.861Z,98.79
2019-02-22T22:51:41.139Z,98.81
2019-02-22T22:54:28.864Z,98.93
2019-02-22T22:57:16.646Z,98.55
2019-02-22T23:00:05.964Z,99.65
2019-02-22T23:02:54.394Z,99.87
2019-02-22T23:05:42.833Z,99.77
2019-02-22T23:08:33.670Z,100.00
2019-02-22T23:11:22.270Z,100.00
2019-02-22T23:14:11.696Z,100.00
2019-02-22T23:16:59.939Z,100.00
2019-02-22T23:19:48.372Z,100.00
2019-02-22T23:22:36.789Z,100.00
2019-02-22T23:25:25.468Z,100.00
2019-02-22T23:28:13.414Z,100.00
2019-02-22T23:31:01.547Z,100.00
2019-02-22T23:33:50.036Z,100.00
2019-02-22T23:36:37.956Z,99.96
2019-02-22T23:39:26.319Z,100.00
2019-02-22T23:42:14.043Z,100.00
2019-02-22T23:45:01.732Z,100.00
2019-02-22T23:47:50.143Z,100.00
2019-02-22T23:50:37.890Z,100.00
2019-02-22T23:53:26.494Z,100.00
2019-02-22T23:56:14.535Z,100.00
2019-02-22T23:59:02.897Z,100.00
